createdAt,value
2022-09-14T00:01:33.686Z,11.07
2022-09-14T00:04:04.780Z,10.13
2022-09-14T00:06:32.422Z,8.32
2022-09-14T00:09:01.305Z,6.90
2022-09-14T00:11:30.076Z,6.60
2022-09-14T00:13:58.477Z,6.28
2022-09-14T00:16:32.056Z,5.63
2022-09-14T00:19:06.349Z,4.93
2022-09-14T00:21:38.149Z,5.43
2022-09-14T00:24:07.351Z,5.20
2022-09-14T00:26:34.796Z,5.50
2022-09-14T00:29:05.746Z,5.57
2022-09-14T00:31:36.194Z,6.50
2022-09-14T00:34:04.861Z,5.70
2022-09-14T00:39:53.349Z,6.13
2022-09-14T00:42:20.303Z,5.78
2022-09-14T00:44:47.190Z,5.60
2022-09-14T00:47:15.423Z,7.57
2022-09-14T00:49:43.750Z,8.00
2022-09-14T00:52:18.535Z,7.53
2022-09-14T00:54:52.254Z,10.48
2022-09-14T00:57:20.323Z,10.65
2022-09-14T00:59:50.411Z,11.88
2022-09-14T01:02:20.771Z,13.80
2022-09-14T01:04:48.742Z,14.00
2022-09-14T01:08:10.203Z,16.38
2022-09-14T01:10:49.242Z,16.85
2022-09-14T01:13:28.981Z,18.55
2022-09-14T01:16:26.139Z,17.88
2022-09-14T01:18:59.137Z,20.92
2022-09-14T01:21:35.665Z,20.33
2022-09-14T01:24:08.467Z,20.38
2022-09-14T01:26:48.516Z,21.40
2022-09-14T01:29:25.322Z,21.85
2022-09-14T01:32:13.789Z,21.10
2022-09-14T01:34:49.256Z,20.85
2022-09-14T01:37:27.730Z,22.33
2022-09-14T01:40:07.995Z,23.60
2022-09-14T01:42:35.714Z,23.85
2022-09-14T01:45:09.939Z,23.98
2022-09-14T01:48:07.162Z,25.20
2022-09-14T01:50:56.879Z,23.52
2022-09-14T01:53:41.492Z,23.20
2022-09-14T01:56:20.387Z,23.85
2022-09-14T01:58:54.124Z,22.30
2022-09-14T02:01:30.359Z,22.17
2022-09-14T02:04:02.955Z,22.55
2022-09-14T02:06:43.691Z,20.98
2022-09-14T02:09:19.873Z,21.27
2022-09-14T02:11:46.893Z,21.73
2022-09-14T02:14:14.216Z,21.52
2022-09-14T02:16:43.639Z,21.90
2022-09-14T02:19:10.807Z,22.88
2022-09-14T02:21:39.134Z,21.92
2022-09-14T02:24:06.934Z,22.40
2022-09-14T02:26:35.207Z,21.10
2022-09-14T02:29:02.682Z,21.50
2022-09-14T02:32:22.710Z,21.13
2022-09-14T02:35:20.747Z,22.48
2022-09-14T02:38:38.510Z,22.85
2022-09-14T02:41:12.106Z,22.00
2022-09-14T02:44:03.386Z,21.88
2022-09-14T02:47:05.753Z,19.63
2022-09-14T02:49:58.805Z,21.10
2022-09-14T02:52:33.775Z,19.35
2022-09-14T02:55:20.357Z,19.67
2022-09-14T02:58:11.192Z,19.92
2022-09-14T03:00:47.146Z,19.45
2022-09-14T03:03:18.946Z,20.45
2022-09-14T03:05:47.689Z,20.92
2022-09-14T03:08:15.113Z,21.13
2022-09-14T03:10:44.214Z,19.58
2022-09-14T03:13:11.859Z,20.40
2022-09-14T03:15:39.269Z,18.83
2022-09-14T03:18:12.307Z,19.60
2022-09-14T03:20:42.526Z,20.15
2022-09-14T03:23:10.845Z,19.60
2022-09-14T03:25:41.382Z,18.63
2022-09-14T03:28:09.254Z,19.20
2022-09-14T03:30:36.918Z,17.92
2022-09-14T03:33:04.126Z,18.10
2022-09-14T03:35:31.958Z,19.17
2022-09-14T03:37:59.885Z,17.25
2022-09-14T03:40:27.617Z,17.83
2022-09-14T03:42:54.867Z,16.65
2022-09-14T03:45:23.840Z,16.92
2022-09-14T03:47:51.183Z,17.83
2022-09-14T03:50:19.171Z,18.15
2022-09-14T03:52:47.341Z,17.73
2022-09-14T03:55:14.323Z,17.58
2022-09-14T03:57:41.350Z,17.13
2022-09-14T04:00:09.098Z,17.67
2022-09-14T04:02:35.917Z,17.15
2022-09-14T04:05:03.026Z,18.58
2022-09-14T04:07:29.823Z,18.15
2022-09-14T04:09:56.826Z,19.83
2022-09-14T04:12:24.041Z,19.58
2022-09-14T04:14:51.070Z,18.70
2022-09-14T04:17:18.912Z,19.60
2022-09-14T04:19:45.774Z,19.48
2022-09-14T04:22:13.769Z,17.95
2022-09-14T04:24:40.649Z,18.27
2022-09-14T04:27:09.696Z,19.25
2022-09-14T04:29:36.874Z,17.27
2022-09-14T04:32:04.048Z,19.85
2022-09-14T04:34:30.942Z,18.73
2022-09-14T04:36:57.751Z,18.70
2022-09-14T04:39:25.618Z,19.95
2022-09-14T04:41:52.430Z,19.10
2022-09-14T04:44:19.382Z,21.65
2022-09-14T04:46:47.230Z,21.90
2022-09-14T04:49:18.864Z,21.35
2022-09-14T04:51:47.025Z,22.38
2022-09-14T04:54:17.850Z,23.52
2022-09-14T04:56:45.160Z,25.27
2022-09-14T04:59:15.379Z,22.70
2022-09-14T05:01:45.612Z,22.65
2022-09-14T05:04:12.847Z,24.17
2022-09-14T05:06:41.655Z,23.75
2022-09-14T05:09:19.170Z,24.98
2022-09-14T05:11:59.229Z,27.52
2022-09-14T05:14:27.301Z,26.38
2022-09-14T05:16:56.526Z,28.52
2022-09-14T05:19:24.365Z,26.58
2022-09-14T05:21:51.184Z,25.33
2022-09-14T05:24:19.611Z,27.25
2022-09-14T05:26:47.333Z,27.00
2022-09-14T05:29:17.581Z,28.05
2022-09-14T05:31:44.672Z,28.90
2022-09-14T05:34:12.712Z,29.05
2022-09-14T05:36:41.904Z,27.33
2022-09-14T05:39:10.500Z,28.25
2022-09-14T05:41:37.758Z,28.77
2022-09-14T05:44:05.456Z,29.17
2022-09-14T05:46:35.391Z,26.80
2022-09-14T05:49:04.286Z,28.30
2022-09-14T05:51:31.272Z,30.02
2022-09-14T05:53:59.858Z,29.63
2022-09-14T05:56:29.752Z,29.02
2022-09-14T05:58:59.287Z,28.92
2022-09-14T06:01:31.173Z,27.50
2022-09-14T06:04:02.968Z,28.13
2022-09-14T06:06:32.223Z,24.85
2022-09-14T06:09:00.742Z,25.85
2022-09-14T06:11:30.410Z,26.13
2022-09-14T06:13:57.586Z,26.45
2022-09-14T06:16:26.304Z,23.92
2022-09-14T06:18:59.887Z,24.83
2022-09-14T06:21:34.165Z,21.95
2022-09-14T06:24:01.135Z,23.83
2022-09-14T06:26:28.258Z,22.50
2022-09-14T06:28:55.244Z,22.13
2022-09-14T06:31:23.255Z,21.20
2022-09-14T06:33:51.806Z,20.75
2022-09-14T06:36:22.557Z,20.70
2022-09-14T06:38:52.567Z,19.85
2022-09-14T06:41:21.929Z,19.48
2022-09-14T06:43:50.664Z,19.02
2022-09-14T06:46:30.398Z,18.77
2022-09-14T06:49:06.665Z,18.08
2022-09-14T06:51:44.831Z,18.25
2022-09-14T06:54:14.313Z,18.17
2022-09-14T06:56:44.202Z,17.92
2022-09-14T06:59:15.303Z,16.60
2022-09-14T07:01:43.681Z,16.27
2022-09-14T07:04:10.683Z,17.70
2022-09-14T07:06:43.242Z,16.60
2022-09-14T07:09:10.599Z,16.08
2022-09-14T07:11:38.465Z,13.88
2022-09-14T07:14:06.363Z,14.07
2022-09-14T07:16:35.390Z,12.70
2022-09-14T07:19:05.543Z,14.07
2022-09-14T07:21:35.568Z,15.20
2022-09-14T07:24:02.766Z,13.77
2022-09-14T07:26:39.597Z,13.80
2022-09-14T07:29:10.056Z,13.57
2022-09-14T07:31:50.457Z,13.45
2022-09-14T07:34:19.170Z,13.48
2022-09-14T07:36:46.639Z,11.93
2022-09-14T07:39:16.141Z,13.63
2022-09-14T07:41:43.655Z,12.45
2022-09-14T07:44:15.181Z,11.32
2022-09-14T07:46:44.585Z,11.10
2022-09-14T07:49:12.672Z,11.75
2022-09-14T07:51:40.434Z,12.77
2022-09-14T07:54:10.147Z,10.93
2022-09-14T07:56:37.044Z,9.55
2022-09-14T07:59:33.508Z,9.32
2022-09-14T08:01:52.028Z,8.93
2022-09-14T08:04:18.978Z,9.90
2022-09-14T08:06:45.847Z,9.65
2022-09-14T08:09:12.713Z,9.73
2022-09-14T08:11:39.744Z,9.07
2022-09-14T08:14:12.605Z,8.25
2022-09-14T08:16:40.707Z,7.50
2022-09-14T08:19:16.548Z,8.48
2022-09-14T08:21:46.881Z,8.43
2022-09-14T08:24:16.432Z,8.73
2022-09-14T08:26:44.469Z,8.55
2022-09-14T08:29:13.209Z,8.23
2022-09-14T08:31:40.890Z,8.93
2022-09-14T08:34:08.948Z,8.23
2022-09-14T08:36:40.899Z,8.45
2022-09-14T08:39:10.397Z,6.68
2022-09-14T08:41:56.976Z,7.68
2022-09-14T08:44:35.065Z,7.93
2022-09-14T08:47:28.262Z,7.80
2022-09-14T08:50:18.700Z,7.80
2022-09-14T08:52:49.703Z,7.75
2022-09-14T08:55:31.787Z,7.40
2022-09-14T08:58:13.963Z,7.18
2022-09-14T09:00:49.781Z,6.97
2022-09-14T09:03:32.709Z,5.50
2022-09-14T09:06:18.016Z,4.82
2022-09-14T09:09:06.529Z,5.00
2022-09-14T09:11:42.644Z,4.82
2022-09-14T09:14:24.066Z,4.82
2022-09-14T09:16:55.046Z,5.30
2022-09-14T09:19:28.965Z,5.45
2022-09-14T09:21:59.056Z,4.30
2022-09-14T09:24:53.198Z,4.60
2022-09-14T09:27:20.382Z,3.60
2022-09-14T09:29:47.854Z,3.92
2022-09-14T09:32:24.088Z,4.35
2022-09-14T09:34:51.843Z,4.70
2022-09-14T09:37:22.383Z,4.53
2022-09-14T09:39:50.228Z,4.70
2022-09-14T09:42:31.042Z,3.08
2022-09-14T09:45:04.395Z,3.33
2022-09-14T09:47:37.513Z,2.75
2022-09-14T09:50:20.639Z,3.45
2022-09-14T09:53:13.867Z,3.97
2022-09-14T09:55:41.034Z,3.20
2022-09-14T09:58:34.018Z,3.40
2022-09-14T10:01:12.027Z,4.25
2022-09-14T10:03:40.667Z,3.55
2022-09-14T10:06:13.344Z,2.63
2022-09-14T10:08:45.710Z,3.70
2022-09-14T10:11:36.694Z,3.53
2022-09-14T10:14:31.409Z,3.97
2022-09-14T10:17:16.879Z,4.13
2022-09-14T10:19:54.833Z,4.00
2022-09-14T10:22:33.046Z,3.60
2022-09-14T10:25:22.164Z,3.58
2022-09-14T10:27:56.381Z,4.03
2022-09-14T10:30:26.802Z,2.80
2022-09-14T10:32:59.538Z,3.45
2022-09-14T10:35:33.991Z,3.25
2022-09-14T10:38:42.521Z,3.20
2022-09-14T10:41:34.221Z,2.75
2022-09-14T10:44:34.630Z,2.75
2022-09-14T10:47:04.680Z,2.42
2022-09-14T10:50:11.550Z,2.75
2022-09-14T10:52:41.515Z,2.60
2022-09-14T10:55:44.674Z,2.80
2022-09-14T10:58:38.712Z,2.50
2022-09-14T11:01:35.677Z,2.83
2022-09-14T11:04:15.635Z,2.90
2022-09-14T11:07:12.358Z,2.33
2022-09-14T11:09:43.960Z,3.13
2022-09-14T11:12:26.002Z,1.90
2022-09-14T11:15:06.622Z,2.50
2022-09-14T11:17:51.620Z,2.28
2022-09-14T11:20:26.682Z,2.83
2022-09-14T11:23:26.538Z,2.70
2022-09-14T11:26:11.202Z,2.95
2022-09-14T11:28:41.367Z,3.00
2022-09-14T11:31:15.051Z,2.80
2022-09-14T11:34:02.961Z,2.50
2022-09-14T11:36:37.043Z,2.17
2022-09-14T11:39:31.975Z,1.77
2022-09-14T11:42:09.855Z,2.33
2022-09-14T11:44:42.332Z,2.05
2022-09-14T11:47:13.036Z,1.77
2022-09-14T11:50:05.707Z,2.25
2022-09-14T11:52:34.052Z,2.03
2022-09-14T11:55:08.967Z,1.83
2022-09-14T11:57:36.657Z,2.00
2022-09-14T12:00:10.094Z,1.90
2022-09-14T12:02:36.974Z,2.20
2022-09-14T12:05:07.180Z,2.00
2022-09-14T12:07:55.483Z,1.80
2022-09-14T12:10:22.397Z,1.80
2022-09-14T12:12:58.417Z,1.80
2022-09-14T12:15:26.170Z,1.60
2022-09-14T12:18:14.110Z,1.60
2022-09-14T12:21:02.833Z,1.17
2022-09-14T12:23:38.667Z,1.38
2022-09-14T12:26:11.905Z,1.65
2022-09-14T12:28:50.591Z,1.58
2022-09-14T12:31:32.889Z,1.50
2022-09-14T12:34:14.958Z,1.48
2022-09-14T12:36:41.816Z,1.70
2022-09-14T12:39:25.884Z,2.10
2022-09-14T12:41:53.020Z,1.83
2022-09-14T12:44:49.321Z,1.35
2022-09-14T12:47:25.051Z,2.03
2022-09-14T12:50:24.805Z,1.60
2022-09-14T12:53:14.152Z,1.45
2022-09-14T12:56:00.867Z,1.17
2022-09-14T12:58:30.443Z,1.60
2022-09-14T13:01:35.019Z,1.40
2022-09-14T13:04:03.024Z,1.55
2022-09-14T13:06:43.850Z,1.02
2022-09-14T13:09:24.041Z,1.60
2022-09-14T13:12:06.517Z,1.45
2022-09-14T13:14:45.749Z,1.67
2022-09-14T13:17:15.072Z,1.60
2022-09-14T13:19:42.851Z,1.33
2022-09-14T13:22:24.460Z,1.60
2022-09-14T13:24:52.508Z,1.65
2022-09-14T13:27:27.032Z,1.98
2022-09-14T13:30:06.651Z,1.65
2022-09-14T13:32:42.658Z,1.48
2022-09-14T13:35:43.582Z,1.65
2022-09-14T13:38:17.286Z,1.45
2022-09-14T13:40:45.839Z,1.33
2022-09-14T13:43:13.098Z,1.70
2022-09-14T13:45:40.537Z,1.60
2022-09-14T13:48:07.684Z,1.52
2022-09-14T13:50:34.616Z,1.40
2022-09-14T13:53:03.352Z,1.42
2022-09-14T13:55:33.923Z,1.80
2022-09-14T13:58:10.874Z,1.33
2022-09-14T14:00:51.048Z,2.40
2022-09-14T14:03:39.122Z,1.30
2022-09-14T14:06:25.148Z,1.48
2022-09-14T14:08:55.123Z,1.85
2022-09-14T14:11:52.826Z,1.63
2022-09-14T14:14:21.426Z,1.60
2022-09-14T14:17:10.344Z,1.70
2022-09-14T14:19:37.394Z,1.10
2022-09-14T14:22:16.381Z,1.60
2022-09-14T14:25:09.528Z,1.30
2022-09-14T14:27:36.542Z,1.50
2022-09-14T14:30:21.892Z,1.48
2022-09-14T14:32:53.434Z,1.45
2022-09-14T14:35:24.534Z,2.13
2022-09-14T14:37:51.882Z,1.58
2022-09-14T14:40:19.857Z,1.73
2022-09-14T14:42:47.531Z,1.48
2022-09-14T14:45:26.513Z,1.50
2022-09-14T14:47:55.539Z,1.58
2022-09-14T14:50:28.949Z,1.60
2022-09-14T14:52:56.967Z,1.45
2022-09-14T14:55:25.730Z,1.70
2022-09-14T14:57:52.808Z,1.95
2022-09-14T15:00:22.601Z,1.70
2022-09-14T15:02:50.131Z,2.03
2022-09-14T15:05:17.827Z,2.03
2022-09-14T15:07:44.768Z,1.40
2022-09-14T15:10:16.551Z,1.67
2022-09-14T15:12:43.922Z,1.48
2022-09-14T15:15:16.100Z,2.00
2022-09-14T15:17:43.177Z,1.73
2022-09-14T15:20:13.472Z,1.50
2022-09-14T15:22:42.461Z,1.60
2022-09-14T15:25:10.957Z,1.83
2022-09-14T15:27:37.779Z,1.90
2022-09-14T15:30:05.544Z,2.22
2022-09-14T15:32:32.364Z,1.70
2022-09-14T15:34:59.079Z,2.38
2022-09-14T15:37:26.032Z,2.80
2022-09-14T15:39:52.869Z,2.13
2022-09-14T15:42:20.108Z,2.22
2022-09-14T15:44:47.185Z,1.90
2022-09-14T15:47:14.788Z,2.10
2022-09-14T15:49:42.529Z,1.63
2022-09-14T15:52:10.796Z,1.88
2022-09-14T15:54:38.823Z,1.55
2022-09-14T15:57:10.607Z,1.70
2022-09-14T15:59:37.555Z,1.80
2022-09-14T16:02:04.480Z,2.40
2022-09-14T16:04:38.140Z,2.53
2022-09-14T16:07:09.727Z,2.20
2022-09-14T16:09:38.549Z,2.35
2022-09-14T16:12:05.995Z,2.03
2022-09-14T16:14:32.753Z,2.15
2022-09-14T16:17:02.629Z,3.10
2022-09-14T16:19:29.641Z,2.70
2022-09-14T16:21:57.882Z,2.72
2022-09-14T16:24:25.793Z,2.72
2022-09-14T16:26:53.055Z,3.10
2022-09-14T16:29:21.887Z,4.43
2022-09-14T16:31:49.277Z,4.65
2022-09-14T16:34:22.189Z,5.60
2022-09-14T16:36:49.681Z,6.07
2022-09-14T16:39:25.534Z,7.22
2022-09-14T16:41:54.129Z,5.22
2022-09-14T16:44:24.477Z,6.15
2022-09-14T16:46:53.222Z,5.70
2022-09-14T16:49:23.593Z,5.38
2022-09-14T16:51:54.037Z,5.32
2022-09-14T16:54:22.432Z,8.05
2022-09-14T16:56:49.339Z,11.65
2022-09-14T16:59:17.745Z,15.95
2022-09-14T17:01:49.754Z,7.82
2022-09-14T17:04:23.351Z,6.18
2022-09-14T17:06:51.716Z,6.05
2022-09-14T17:09:24.446Z,7.10
2022-09-14T17:11:51.689Z,8.00
2022-09-14T17:14:21.218Z,7.93
2022-09-14T17:16:48.476Z,6.63
2022-09-14T17:19:15.624Z,7.38
2022-09-14T17:21:44.447Z,6.15
2022-09-14T17:24:12.761Z,5.35
2022-09-14T17:26:39.848Z,5.07
2022-09-14T17:29:07.264Z,5.07
2022-09-14T17:31:38.164Z,5.28
2022-09-14T17:34:07.457Z,5.78
2022-09-14T17:36:34.707Z,5.80
2022-09-14T17:39:11.386Z,6.43
2022-09-14T17:41:39.666Z,5.93
2022-09-14T17:44:08.008Z,6.05
2022-09-14T17:46:37.229Z,6.05
2022-09-14T17:49:08.639Z,6.72
2022-09-14T17:51:37.214Z,6.72
2022-09-14T17:54:04.166Z,6.45
2022-09-14T17:56:31.012Z,6.80
2022-09-14T17:59:12.047Z,6.38
2022-09-14T18:01:38.816Z,7.32
2022-09-14T18:04:09.736Z,7.30
2022-09-14T18:06:39.439Z,7.18
2022-09-14T18:09:10.486Z,6.93
2022-09-14T18:11:37.975Z,7.55
2022-09-14T18:14:05.789Z,8.40
2022-09-14T18:16:33.290Z,8.02
2022-09-14T18:19:00.289Z,8.30
2022-09-14T18:21:27.730Z,8.88
2022-09-14T18:23:55.547Z,10.18
2022-09-14T18:26:24.208Z,9.60
2022-09-14T18:28:53.518Z,10.05
2022-09-14T18:31:23.136Z,12.70
2022-09-14T18:33:55.231Z,14.40
2022-09-14T18:36:22.685Z,12.18
2022-09-14T18:38:51.391Z,12.32
2022-09-14T18:41:18.407Z,12.77
2022-09-14T18:43:47.333Z,11.65
2022-09-14T18:46:15.321Z,11.48
2022-09-14T18:48:45.408Z,11.75
2022-09-14T18:51:13.936Z,11.02
2022-09-14T18:53:41.108Z,11.85
2022-09-14T18:56:10.747Z,11.15
2022-09-14T18:58:41.746Z,11.07
2022-09-14T19:01:09.471Z,11.02
2022-09-14T19:03:37.711Z,11.73
2022-09-14T19:06:07.269Z,12.00
2022-09-14T19:08:34.683Z,13.32
2022-09-14T19:11:09.629Z,13.45
2022-09-14T19:13:37.145Z,13.30
2022-09-14T19:16:12.145Z,13.73
2022-09-14T19:18:41.468Z,16.73
2022-09-14T19:21:14.526Z,18.02
2022-09-14T19:23:43.012Z,17.88
2022-09-14T19:26:15.662Z,18.35
2022-09-14T19:28:43.594Z,19.58
2022-09-14T19:31:16.216Z,19.02
2022-09-14T19:33:45.662Z,19.67
2022-09-14T19:36:21.236Z,20.60
2022-09-14T19:38:49.419Z,20.50
2022-09-14T19:41:17.132Z,19.77
2022-09-14T19:43:44.151Z,18.45
2022-09-14T19:46:14.309Z,18.02
2022-09-14T19:48:41.993Z,17.48
2022-09-14T19:51:12.584Z,17.42
2022-09-14T19:53:39.362Z,17.02
2022-09-14T19:56:11.014Z,14.13
2022-09-14T19:58:43.332Z,16.65
2022-09-14T20:01:11.100Z,14.15
2022-09-14T20:03:39.000Z,15.00
2022-09-14T20:06:07.514Z,15.50
2022-09-14T20:08:35.060Z,15.43
2022-09-14T20:11:05.628Z,14.43
2022-09-14T20:13:32.575Z,15.38
2022-09-14T20:15:59.441Z,15.07
2022-09-14T20:18:26.294Z,13.45
2022-09-14T20:20:53.252Z,14.43
2022-09-14T20:23:20.038Z,14.40
2022-09-14T20:25:46.818Z,12.68
2022-09-14T20:28:13.570Z,13.32
2022-09-14T20:30:41.188Z,13.27
2022-09-14T20:33:08.161Z,13.02
2022-09-14T20:35:35.098Z,13.57
2022-09-14T20:38:01.900Z,13.38
2022-09-14T20:40:28.801Z,13.52
2022-09-14T20:42:55.649Z,13.13
2022-09-14T20:45:22.485Z,14.07
2022-09-14T20:47:52.322Z,11.38
2022-09-14T20:50:19.234Z,12.95
2022-09-14T20:52:55.110Z,11.88
2022-09-14T20:55:22.042Z,11.73
2022-09-14T20:57:48.871Z,12.25
2022-09-14T21:00:16.095Z,10.93
2022-09-14T21:02:42.977Z,12.45
2022-09-14T21:05:09.862Z,12.60
2022-09-14T21:07:36.686Z,12.10
2022-09-14T21:10:10.044Z,11.27
2022-09-14T21:12:37.003Z,11.63
2022-09-14T21:15:05.056Z,10.95
2022-09-14T21:17:34.479Z,9.13
2022-09-14T21:20:04.566Z,11.25
2022-09-14T21:22:31.659Z,9.40
2022-09-14T21:24:58.652Z,10.93
2022-09-14T21:27:26.709Z,9.70
2022-09-14T21:29:57.040Z,9.50
2022-09-14T21:32:29.917Z,10.40
2022-09-14T21:35:04.970Z,9.90
2022-09-14T21:37:31.889Z,9.63
2022-09-14T21:39:59.722Z,10.05
2022-09-14T21:42:26.807Z,9.65
2022-09-14T21:44:56.711Z,10.10
2022-09-14T21:47:23.562Z,9.45
2022-09-14T21:49:50.688Z,9.77
2022-09-14T21:52:20.610Z,9.32
2022-09-14T21:54:47.547Z,10.02
2022-09-14T21:57:15.618Z,9.35
2022-09-14T21:59:43.674Z,9.32
2022-09-14T22:02:12.970Z,9.57
2022-09-14T22:04:40.747Z,9.77
2022-09-14T22:07:07.935Z,9.52
2022-09-14T22:09:35.123Z,9.20
2022-09-14T22:12:02.317Z,9.85
2022-09-14T22:14:30.268Z,10.15
2022-09-14T22:16:57.232Z,9.20
2022-09-14T22:19:28.224Z,9.38
2022-09-14T22:21:57.823Z,9.32
2022-09-14T22:24:32.288Z,9.20
2022-09-14T22:27:09.151Z,8.88
2022-09-14T22:29:37.528Z,8.55
2022-09-14T22:32:07.140Z,8.27
2022-09-14T22:34:35.790Z,9.13
2022-09-14T22:37:03.216Z,8.05
2022-09-14T22:39:30.187Z,8.43
2022-09-14T22:41:57.133Z,8.13
2022-09-14T22:44:24.267Z,8.40
2022-09-14T22:46:52.292Z,7.45
2022-09-14T22:49:19.122Z,8.02
2022-09-14T22:51:48.150Z,9.00
2022-09-14T22:54:16.278Z,8.05
2022-09-14T22:56:44.258Z,7.80
2022-09-14T22:59:13.224Z,7.25
2022-09-14T23:01:43.292Z,7.78
2022-09-14T23:04:13.623Z,7.43
2022-09-14T23:06:45.109Z,7.50
2022-09-14T23:09:16.624Z,7.50
2022-09-14T23:11:44.821Z,7.60
2022-09-14T23:14:13.181Z,8.20
2022-09-14T23:16:46.121Z,7.05
2022-09-14T23:19:17.052Z,8.02
2022-09-14T23:21:46.589Z,7.43
2022-09-14T23:24:20.582Z,8.05
2022-09-14T23:26:48.801Z,7.95
2022-09-14T23:29:17.148Z,7.95
2022-09-14T23:31:44.397Z,9.55
2022-09-14T23:34:12.791Z,7.75
2022-09-14T23:36:41.970Z,8.02
2022-09-14T23:39:15.705Z,8.30
2022-09-14T23:41:42.743Z,8.25
2022-09-14T23:44:11.066Z,7.38
2022-09-14T23:46:37.910Z,7.53
2022-09-14T23:49:04.805Z,7.05
2022-09-14T23:51:33.155Z,7.55
2022-09-14T23:53:59.942Z,7.50
2022-09-14T23:56:26.907Z,7.15
2022-09-14T23:58:53.959Z,6.78
